sensor_id;sensor_type;location;lat;lon;timestamp;temperature;humidity
8711;DHT22;4392;47.400;8.062;2022-12-18T00:01:00;3.40;94.90
8711;DHT22;4392;47.400;8.062;2022-12-18T00:03:26;4.20;99.90
8711;DHT22;4392;47.400;8.062;2022-12-18T00:05:52;4.80;94.20
8711;DHT22;4392;47.400;8.062;2022-12-18T00:08:18;4.10;93.50
8711;DHT22;4392;47.400;8.062;2022-12-18T00:10:45;3.70;93.90
8711;DHT22;4392;47.400;8.062;2022-12-18T00:13:12;3.50;94.30
8711;DHT22;4392;47.400;8.062;2022-12-18T00:15:39;3.30;94.60
8711;DHT22;4392;47.400;8.062;2022-12-18T00:18:05;3.20;94.90
8711;DHT22;4392;47.400;8.062;2022-12-18T00:20:34;3.10;95.00
8711;DHT22;4392;47.400;8.062;2022-12-18T00:23:00;3.00;95.40
8711;DHT22;4392;47.400;8.062;2022-12-18T00:25:26;3.20;96.60
8711;DHT22;4392;47.400;8.062;2022-12-18T00:27:52;3.10;95.50
8711;DHT22;4392;47.400;8.062;2022-12-18T00:30:18;3.00;95.80
8711;DHT22;4392;47.400;8.062;2022-12-18T00:32:44;2.80;95.70
8711;DHT22;4392;47.400;8.062;2022-12-18T00:35:09;2.70;95.70
8711;DHT22;4392;47.400;8.062;2022-12-18T00:37:35;2.80;96.10
8711;DHT22;4392;47.400;8.062;2022-12-18T00:40:02;2.70;96.30
8711;DHT22;4392;47.400;8.062;2022-12-18T00:42:27;2.70;96.20
8711;DHT22;4392;47.400;8.062;2022-12-18T00:45:12;2.70;96.70
8711;DHT22;4392;47.400;8.062;2022-12-18T00:47:37;2.50;97.20
8711;DHT22;4392;47.400;8.062;2022-12-18T00:50:04;4.70;99.90
8711;DHT22;4392;47.400;8.062;2022-12-18T00:52:29;4.10;96.20
8711;DHT22;4392;47.400;8.062;2022-12-18T00:54:55;3.60;95.10
8711;DHT22;4392;47.400;8.062;2022-12-18T00:57:21;3.30;95.30
8711;DHT22;4392;47.400;8.062;2022-12-18T00:59:46;3.20;96.10
8711;DHT22;4392;47.400;8.062;2022-12-18T01:02:14;3.00;96.20
8711;DHT22;4392;47.400;8.062;2022-12-18T01:04:39;2.90;96.70
8711;DHT22;4392;47.400;8.062;2022-12-18T01:07:05;3.00;96.70
8711;DHT22;4392;47.400;8.062;2022-12-18T01:09:33;5.20;99.90
8711;DHT22;4392;47.400;8.062;2022-12-18T01:12:02;4.40;96.60
8711;DHT22;4392;47.400;8.062;2022-12-18T01:14:28;3.80;96.40
8711;DHT22;4392;47.400;8.062;2022-12-18T01:16:54;3.40;96.90
8711;DHT22;4392;47.400;8.062;2022-12-18T01:19:19;3.30;96.90
8711;DHT22;4392;47.400;8.062;2022-12-18T01:21:45;3.10;97.20
8711;DHT22;4392;47.400;8.062;2022-12-18T01:24:12;3.00;97.80
8711;DHT22;4392;47.400;8.062;2022-12-18T01:26:38;2.90;97.90
8711;DHT22;4392;47.400;8.062;2022-12-18T01:29:03;3.10;99.70
8711;DHT22;4392;47.400;8.062;2022-12-18T01:31:31;3.00;97.60
8711;DHT22;4392;47.400;8.062;2022-12-18T01:34:00;2.90;97.50
8711;DHT22;4392;47.400;8.062;2022-12-18T01:36:29;2.80;97.60
8711;DHT22;4392;47.400;8.062;2022-12-18T01:38:55;2.80;97.90
8711;DHT22;4392;47.400;8.062;2022-12-18T01:41:24;2.70;98.00
8711;DHT22;4392;47.400;8.062;2022-12-18T01:43:57;2.80;98.90
8711;DHT22;4392;47.400;8.062;2022-12-18T01:46:23;3.00;99.20
8711;DHT22;4392;47.400;8.062;2022-12-18T01:48:55;2.90;98.00
8711;DHT22;4392;47.400;8.062;2022-12-18T01:51:22;2.80;97.40
8711;DHT22;4392;47.400;8.062;2022-12-18T01:53:48;2.70;96.80
8711;DHT22;4392;47.400;8.062;2022-12-18T01:56:17;2.60;96.10
8711;DHT22;4392;47.400;8.062;2022-12-18T01:59:03;2.50;95.80
8711;DHT22;4392;47.400;8.062;2022-12-18T02:01:31;2.50;95.70
8711;DHT22;4392;47.400;8.062;2022-12-18T02:04:21;2.50;95.70
8711;DHT22;4392;47.400;8.062;2022-12-18T02:06:53;4.90;99.90
8711;DHT22;4392;47.400;8.062;2022-12-18T02:09:34;4.20;96.20
8711;DHT22;4392;47.400;8.062;2022-12-18T02:12:18;3.60;94.80
8711;DHT22;4392;47.400;8.062;2022-12-18T02:14:56;3.20;94.10
8711;DHT22;4392;47.400;8.062;2022-12-18T02:18:07;4.50;99.90
8711;DHT22;4392;47.400;8.062;2022-12-18T02:20:44;6.10;93.90
8711;DHT22;4392;47.400;8.062;2022-12-18T02:23:38;4.80;89.80
8711;DHT22;4392;47.400;8.062;2022-12-18T02:26:22;4.10;90.90
8711;DHT22;4392;47.400;8.062;2022-12-18T02:28:58;3.60;91.70
8711;DHT22;4392;47.400;8.062;2022-12-18T02:31:31;3.40;94.80
8711;DHT22;4392;47.400;8.062;2022-12-18T02:34:01;3.40;92.90
8711;DHT22;4392;47.400;8.062;2022-12-18T02:36:28;3.20;92.60
8711;DHT22;4392;47.400;8.062;2022-12-18T02:38:56;3.00;93.00
8711;DHT22;4392;47.400;8.062;2022-12-18T02:41:22;2.90;93.40
8711;DHT22;4392;47.400;8.062;2022-12-18T02:43:52;2.90;93.70
8711;DHT22;4392;47.400;8.062;2022-12-18T02:46:40;2.80;93.90
8711;DHT22;4392;47.400;8.062;2022-12-18T02:51:52;4.80;93.50
8711;DHT22;4392;47.400;8.062;2022-12-18T02:57:13;3.70;93.50
8711;DHT22;4392;47.400;8.062;2022-12-18T02:59:49;3.50;93.50
8711;DHT22;4392;47.400;8.062;2022-12-18T03:02:26;3.90;99.90
8711;DHT22;4392;47.400;8.062;2022-12-18T03:07:57;3.50;94.10
8711;DHT22;4392;47.400;8.062;2022-12-18T03:10:35;3.20;94.50
8711;DHT22;4392;47.400;8.062;2022-12-18T03:13:07;3.00;94.70
8711;DHT22;4392;47.400;8.062;2022-12-18T03:15:49;3.00;95.20
8711;DHT22;4392;47.400;8.062;2022-12-18T03:18:18;3.00;99.00
8711;DHT22;4392;47.400;8.062;2022-12-18T03:20:47;4.10;99.20
8711;DHT22;4392;47.400;8.062;2022-12-18T03:23:19;3.60;95.50
8711;DHT22;4392;47.400;8.062;2022-12-18T03:25:47;3.30;95.50
8711;DHT22;4392;47.400;8.062;2022-12-18T03:28:20;3.10;95.60
8711;DHT22;4392;47.400;8.062;2022-12-18T03:30:50;3.00;95.60
8711;DHT22;4392;47.400;8.062;2022-12-18T03:33:23;2.90;95.60
8711;DHT22;4392;47.400;8.062;2022-12-18T03:35:49;2.90;95.60
8711;DHT22;4392;47.400;8.062;2022-12-18T03:38:15;2.80;95.70
8711;DHT22;4392;47.400;8.062;2022-12-18T03:41:00;2.90;96.10
8711;DHT22;4392;47.400;8.062;2022-12-18T03:52:00;3.10;95.30
8711;DHT22;4392;47.400;8.062;2022-12-18T03:54:37;2.80;95.40
8711;DHT22;4392;47.400;8.062;2022-12-18T03:57:13;2.70;95.50
8711;DHT22;4392;47.400;8.062;2022-12-18T03:59:41;2.70;95.90
8711;DHT22;4392;47.400;8.062;2022-12-18T04:02:08;2.70;95.90
8711;DHT22;4392;47.400;8.062;2022-12-18T04:04:36;2.70;96.00
8711;DHT22;4392;47.400;8.062;2022-12-18T04:07:03;2.60;95.90
8711;DHT22;4392;47.400;8.062;2022-12-18T04:09:30;2.50;96.10
8711;DHT22;4392;47.400;8.062;2022-12-18T04:11:57;2.50;96.50
8711;DHT22;4392;47.400;8.062;2022-12-18T04:14:23;2.50;96.60
8711;DHT22;4392;47.400;8.062;2022-12-18T04:16:49;2.50;96.70
8711;DHT22;4392;47.400;8.062;2022-12-18T04:19:15;2.50;96.70
8711;DHT22;4392;47.400;8.062;2022-12-18T04:21:40;2.50;96.40
8711;DHT22;4392;47.400;8.062;2022-12-18T04:24:06;2.40;96.50
8711;DHT22;4392;47.400;8.062;2022-12-18T04:26:32;2.40;96.60
8711;DHT22;4392;47.400;8.062;2022-12-18T04:28:58;2.40;96.70
8711;DHT22;4392;47.400;8.062;2022-12-18T04:31:24;2.40;96.70
8711;DHT22;4392;47.400;8.062;2022-12-18T04:33:50;2.40;97.00
8711;DHT22;4392;47.400;8.062;2022-12-18T04:36:15;2.40;96.90
8711;DHT22;4392;47.400;8.062;2022-12-18T04:38:41;2.40;97.20
8711;DHT22;4392;47.400;8.062;2022-12-18T04:41:07;2.40;97.10
8711;DHT22;4392;47.400;8.062;2022-12-18T04:43:32;2.40;97.20
8711;DHT22;4392;47.400;8.062;2022-12-18T04:46:07;2.40;97.40
8711;DHT22;4392;47.400;8.062;2022-12-18T04:48:33;3.20;99.90
8711;DHT22;4392;47.400;8.062;2022-12-18T04:50:59;5.60;99.90
8711;DHT22;4392;47.400;8.062;2022-12-18T04:53:28;4.60;94.60
8711;DHT22;4392;47.400;8.062;2022-12-18T04:56:12;3.80;94.40
8711;DHT22;4392;47.400;8.062;2022-12-18T04:58:46;3.10;94.20
8711;DHT22;4392;47.400;8.062;2022-12-18T05:01:15;2.80;95.30
8711;DHT22;4392;47.400;8.062;2022-12-18T05:03:43;2.70;95.70
8711;DHT22;4392;47.400;8.062;2022-12-18T05:06:09;3.80;99.90
8711;DHT22;4392;47.400;8.062;2022-12-18T05:08:35;4.00;99.50
8711;DHT22;4392;47.400;8.062;2022-12-18T05:11:02;3.50;96.10
8711;DHT22;4392;47.400;8.062;2022-12-18T05:13:29;3.20;95.70
8711;DHT22;4392;47.400;8.062;2022-12-18T05:15:55;3.00;95.20
8711;DHT22;4392;47.400;8.062;2022-12-18T05:18:23;4.20;99.90
8711;DHT22;4392;47.400;8.062;2022-12-18T05:20:50;3.80;97.60
8711;DHT22;4392;47.400;8.062;2022-12-18T05:23:16;3.40;95.90
8711;DHT22;4392;47.400;8.062;2022-12-18T05:25:42;3.20;95.60
8711;DHT22;4392;47.400;8.062;2022-12-18T05:28:08;3.10;95.50
8711;DHT22;4392;47.400;8.062;2022-12-18T05:30:34;3.10;95.60
8711;DHT22;4392;47.400;8.062;2022-12-18T05:32:59;3.00;95.30
8711;DHT22;4392;47.400;8.062;2022-12-18T05:35:25;2.90;95.30
8711;DHT22;4392;47.400;8.062;2022-12-18T05:37:51;2.90;95.50
8711;DHT22;4392;47.400;8.062;2022-12-18T05:40:17;2.90;95.50
8711;DHT22;4392;47.400;8.062;2022-12-18T05:42:42;2.90;95.40
8711;DHT22;4392;47.400;8.062;2022-12-18T05:45:08;2.90;95.30
8711;DHT22;4392;47.400;8.062;2022-12-18T05:47:34;2.90;95.30
8711;DHT22;4392;47.400;8.062;2022-12-18T05:50:00;2.90;95.30
8711;DHT22;4392;47.400;8.062;2022-12-18T05:52:26;2.80;95.00
8711;DHT22;4392;47.400;8.062;2022-12-18T05:54:57;2.90;95.00
8711;DHT22;4392;47.400;8.062;2022-12-18T05:57:24;2.80;94.90
8711;DHT22;4392;47.400;8.062;2022-12-18T05:59:50;2.70;94.90
8711;DHT22;4392;47.400;8.062;2022-12-18T06:02:16;2.80;95.10
8711;DHT22;4392;47.400;8.062;2022-12-18T06:04:49;2.90;95.00
8711;DHT22;4392;47.400;8.062;2022-12-18T06:07:15;2.90;94.90
8711;DHT22;4392;47.400;8.062;2022-12-18T06:09:41;3.00;94.90
8711;DHT22;4392;47.400;8.062;2022-12-18T06:12:07;3.00;94.90
8711;DHT22;4392;47.400;8.062;2022-12-18T06:14:35;3.00;95.10
8711;DHT22;4392;47.400;8.062;2022-12-18T06:17:01;3.10;94.80
8711;DHT22;4392;47.400;8.062;2022-12-18T06:19:26;3.10;94.90
8711;DHT22;4392;47.400;8.062;2022-12-18T06:21:52;3.00;94.80
8711;DHT22;4392;47.400;8.062;2022-12-18T06:24:18;3.00;95.00
8711;DHT22;4392;47.400;8.062;2022-12-18T06:26:44;3.00;95.60
8711;DHT22;4392;47.400;8.062;2022-12-18T06:29:11;3.10;95.40
8711;DHT22;4392;47.400;8.062;2022-12-18T06:31:37;3.10;95.00
8711;DHT22;4392;47.400;8.062;2022-12-18T06:34:03;3.10;95.00
8711;DHT22;4392;47.400;8.062;2022-12-18T06:36:30;3.00;94.80
8711;DHT22;4392;47.400;8.062;2022-12-18T06:38:56;2.90;95.00
8711;DHT22;4392;47.400;8.062;2022-12-18T06:41:23;3.00;94.90
8711;DHT22;4392;47.400;8.062;2022-12-18T06:43:52;2.90;95.00
8711;DHT22;4392;47.400;8.062;2022-12-18T06:46:17;3.00;95.10
8711;DHT22;4392;47.400;8.062;2022-12-18T06:48:47;3.80;99.90
8711;DHT22;4392;47.400;8.062;2022-12-18T06:51:16;4.70;96.70
8711;DHT22;4392;47.400;8.062;2022-12-18T06:53:42;4.00;95.10
8711;DHT22;4392;47.400;8.062;2022-12-18T06:56:08;3.40;95.30
8711;DHT22;4392;47.400;8.062;2022-12-18T06:58:34;3.10;95.80
8711;DHT22;4392;47.400;8.062;2022-12-18T07:01:03;3.00;96.10
8711;DHT22;4392;47.400;8.062;2022-12-18T07:03:29;2.80;96.50
8711;DHT22;4392;47.400;8.062;2022-12-18T07:05:55;2.80;96.40
8711;DHT22;4392;47.400;8.062;2022-12-18T07:08:21;2.80;96.70
8711;DHT22;4392;47.400;8.062;2022-12-18T07:10:49;2.70;97.00
8711;DHT22;4392;47.400;8.062;2022-12-18T07:13:17;2.80;97.20
8711;DHT22;4392;47.400;8.062;2022-12-18T07:15:44;2.70;96.90
8711;DHT22;4392;47.400;8.062;2022-12-18T07:18:10;2.60;97.20
8711;DHT22;4392;47.400;8.062;2022-12-18T07:20:36;2.60;97.40
8711;DHT22;4392;47.400;8.062;2022-12-18T07:23:05;2.50;97.30
8711;DHT22;4392;47.400;8.062;2022-12-18T07:25:35;2.50;97.50
8711;DHT22;4392;47.400;8.062;2022-12-18T07:28:01;2.60;97.60
8711;DHT22;4392;47.400;8.062;2022-12-18T07:30:26;2.60;97.60
8711;DHT22;4392;47.400;8.062;2022-12-18T07:32:52;2.60;97.30
8711;DHT22;4392;47.400;8.062;2022-12-18T07:35:18;2.60;97.70
8711;DHT22;4392;47.400;8.062;2022-12-18T07:37:44;2.50;97.70
8711;DHT22;4392;47.400;8.062;2022-12-18T07:40:10;2.50;98.20
8711;DHT22;4392;47.400;8.062;2022-12-18T07:42:36;2.50;98.00
8711;DHT22;4392;47.400;8.062;2022-12-18T07:45:03;2.50;98.10
8711;DHT22;4392;47.400;8.062;2022-12-18T07:47:29;2.50;98.10
8711;DHT22;4392;47.400;8.062;2022-12-18T07:49:58;2.50;98.20
8711;DHT22;4392;47.400;8.062;2022-12-18T07:52:23;2.50;98.10
8711;DHT22;4392;47.400;8.062;2022-12-18T07:54:49;2.60;98.40
8711;DHT22;4392;47.400;8.062;2022-12-18T07:57:16;2.60;99.90
8711;DHT22;4392;47.400;8.062;2022-12-18T07:59:42;3.20;99.90
8711;DHT22;4392;47.400;8.062;2022-12-18T08:02:08;3.10;99.90
8711;DHT22;4392;47.400;8.062;2022-12-18T08:04:35;3.00;99.90
8711;DHT22;4392;47.400;8.062;2022-12-18T08:07:01;2.70;99.90
8711;DHT22;4392;47.400;8.062;2022-12-18T08:09:27;2.80;99.90
8711;DHT22;4392;47.400;8.062;2022-12-18T08:11:52;2.80;99.90
8711;DHT22;4392;47.400;8.062;2022-12-18T08:14:18;2.70;99.90
8711;DHT22;4392;47.400;8.062;2022-12-18T08:16:44;2.70;99.90
8711;DHT22;4392;47.400;8.062;2022-12-18T08:19:10;2.70;99.90
8711;DHT22;4392;47.400;8.062;2022-12-18T08:21:36;2.70;99.90
8711;DHT22;4392;47.400;8.062;2022-12-18T08:24:02;2.60;99.90
8711;DHT22;4392;47.400;8.062;2022-12-18T08:26:30;2.60;99.90
8711;DHT22;4392;47.400;8.062;2022-12-18T08:28:57;2.60;99.90
8711;DHT22;4392;47.400;8.062;2022-12-18T08:31:24;2.70;99.90
8711;DHT22;4392;47.400;8.062;2022-12-18T08:33:52;2.80;99.90
8711;DHT22;4392;47.400;8.062;2022-12-18T08:36:19;2.80;99.90
8711;DHT22;4392;47.400;8.062;2022-12-18T08:38:45;2.70;99.90
8711;DHT22;4392;47.400;8.062;2022-12-18T08:41:13;2.70;99.90
8711;DHT22;4392;47.400;8.062;2022-12-18T08:43:39;2.70;99.90
8711;DHT22;4392;47.400;8.062;2022-12-18T08:46:25;2.70;99.90
8711;DHT22;4392;47.400;8.062;2022-12-18T08:48:52;2.60;99.90
8711;DHT22;4392;47.400;8.062;2022-12-18T08:51:19;2.70;99.90
8711;DHT22;4392;47.400;8.062;2022-12-18T08:53:50;2.60;99.40
8711;DHT22;4392;47.400;8.062;2022-12-18T08:56:16;2.60;99.20
8711;DHT22;4392;47.400;8.062;2022-12-18T08:58:47;2.70;99.20
8711;DHT22;4392;47.400;8.062;2022-12-18T09:01:16;2.60;99.20
8711;DHT22;4392;47.400;8.062;2022-12-18T09:03:44;2.60;99.20
8711;DHT22;4392;47.400;8.062;2022-12-18T09:06:13;2.60;99.10
8711;DHT22;4392;47.400;8.062;2022-12-18T09:08:40;2.60;98.80
8711;DHT22;4392;47.400;8.062;2022-12-18T09:11:15;2.60;98.60
8711;DHT22;4392;47.400;8.062;2022-12-18T09:13:44;2.60;98.50
8711;DHT22;4392;47.400;8.062;2022-12-18T09:16:10;2.60;98.30
8711;DHT22;4392;47.400;8.062;2022-12-18T09:18:36;2.60;98.30
8711;DHT22;4392;47.400;8.062;2022-12-18T09:21:18;2.60;98.30
8711;DHT22;4392;47.400;8.062;2022-12-18T09:23:45;2.60;98.40
8711;DHT22;4392;47.400;8.062;2022-12-18T09:26:14;2.60;98.30
8711;DHT22;4392;47.400;8.062;2022-12-18T09:28:40;2.60;98.20
8711;DHT22;4392;47.400;8.062;2022-12-18T09:31:07;2.60;98.20
8711;DHT22;4392;47.400;8.062;2022-12-18T09:33:36;2.60;98.10
8711;DHT22;4392;47.400;8.062;2022-12-18T09:36:04;2.60;98.40
8711;DHT22;4392;47.400;8.062;2022-12-18T09:38:31;2.70;97.80
8711;DHT22;4392;47.400;8.062;2022-12-18T09:41:06;2.60;97.70
8711;DHT22;4392;47.400;8.062;2022-12-18T09:43:47;2.60;97.80
8711;DHT22;4392;47.400;8.062;2022-12-18T09:46:26;2.70;97.90
8711;DHT22;4392;47.400;8.062;2022-12-18T09:48:56;2.70;97.80
8711;DHT22;4392;47.400;8.062;2022-12-18T09:51:32;2.70;97.70
8711;DHT22;4392;47.400;8.062;2022-12-18T09:54:07;2.70;97.50
8711;DHT22;4392;47.400;8.062;2022-12-18T09:56:40;2.70;97.40
8711;DHT22;4392;47.400;8.062;2022-12-18T09:59:24;2.70;97.40
8711;DHT22;4392;47.400;8.062;2022-12-18T10:01:51;2.70;97.30
8711;DHT22;4392;47.400;8.062;2022-12-18T10:04:16;2.70;97.10
8711;DHT22;4392;47.400;8.062;2022-12-18T10:06:56;2.70;97.10
8711;DHT22;4392;47.400;8.062;2022-12-18T10:09:53;2.70;97.00
8711;DHT22;4392;47.400;8.062;2022-12-18T10:26:09;2.80;97.10
8711;DHT22;4392;47.400;8.062;2022-12-18T10:28:37;2.80;97.10
8711;DHT22;4392;47.400;8.062;2022-12-18T10:31:16;2.80;97.10
8711;DHT22;4392;47.400;8.062;2022-12-18T10:33:42;2.80;96.80
8711;DHT22;4392;47.400;8.062;2022-12-18T10:36:09;2.80;96.80
8711;DHT22;4392;47.400;8.062;2022-12-18T10:38:35;2.80;96.90
8711;DHT22;4392;47.400;8.062;2022-12-18T10:41:06;2.80;96.90
8711;DHT22;4392;47.400;8.062;2022-12-18T10:43:38;2.80;96.70
8711;DHT22;4392;47.400;8.062;2022-12-18T10:48:55;2.80;96.70
8711;DHT22;4392;47.400;8.062;2022-12-18T10:51:24;2.80;96.90
8711;DHT22;4392;47.400;8.062;2022-12-18T10:54:00;2.80;96.80
8711;DHT22;4392;47.400;8.062;2022-12-18T10:56:28;2.80;96.80
8711;DHT22;4392;47.400;8.062;2022-12-18T11:04:19;2.90;97.50
8711;DHT22;4392;47.400;8.062;2022-12-18T11:06:58;2.90;97.40
8711;DHT22;4392;47.400;8.062;2022-12-18T11:09:25;3.00;97.60
8711;DHT22;4392;47.400;8.062;2022-12-18T11:11:54;3.00;97.20
8711;DHT22;4392;47.400;8.062;2022-12-18T11:14:27;2.90;97.60
8711;DHT22;4392;47.400;8.062;2022-12-18T11:16:54;2.90;97.40
8711;DHT22;4392;47.400;8.062;2022-12-18T11:19:35;2.90;97.50
8711;DHT22;4392;47.400;8.062;2022-12-18T11:22:17;2.90;97.30
8711;DHT22;4392;47.400;8.062;2022-12-18T11:24:53;3.00;97.40
8711;DHT22;4392;47.400;8.062;2022-12-18T11:27:21;3.00;97.30
8711;DHT22;4392;47.400;8.062;2022-12-18T11:29:50;3.00;97.20
8711;DHT22;4392;47.400;8.062;2022-12-18T11:32:37;3.00;97.20
8711;DHT22;4392;47.400;8.062;2022-12-18T11:37:54;3.00;97.70
8711;DHT22;4392;47.400;8.062;2022-12-18T11:40:32;3.00;97.50
8711;DHT22;4392;47.400;8.062;2022-12-18T11:43:13;3.00;97.30
8711;DHT22;4392;47.400;8.062;2022-12-18T11:45:53;3.00;97.40
8711;DHT22;4392;47.400;8.062;2022-12-18T11:48:49;3.00;97.50
8711;DHT22;4392;47.400;8.062;2022-12-18T11:51:19;3.00;97.50
8711;DHT22;4392;47.400;8.062;2022-12-18T11:53:48;3.00;97.50
8711;DHT22;4392;47.400;8.062;2022-12-18T11:56:35;3.00;97.40
8711;DHT22;4392;47.400;8.062;2022-12-18T12:21:36;3.10;98.10
8711;DHT22;4392;47.400;8.062;2022-12-18T12:40:28;3.10;97.70
8711;DHT22;4392;47.400;8.062;2022-12-18T12:43:00;3.10;97.60
8711;DHT22;4392;47.400;8.062;2022-12-18T12:45:58;3.10;97.60
8711;DHT22;4392;47.400;8.062;2022-12-18T12:51:14;3.10;97.80
8711;DHT22;4392;47.400;8.062;2022-12-18T12:53:42;3.20;98.00
8711;DHT22;4392;47.400;8.062;2022-12-18T12:56:10;3.20;97.80
8711;DHT22;4392;47.400;8.062;2022-12-18T13:13:01;2.90;99.40
8711;DHT22;4392;47.400;8.062;2022-12-18T13:15:32;2.90;99.70
8711;DHT22;4392;47.400;8.062;2022-12-18T13:18:23;3.00;99.70
8711;DHT22;4392;47.400;8.062;2022-12-18T13:25:51;3.00;99.90
8711;DHT22;4392;47.400;8.062;2022-12-18T13:28:48;3.00;99.80
8711;DHT22;4392;47.400;8.062;2022-12-18T13:31:06;3.10;99.50
8711;DHT22;4392;47.400;8.062;2022-12-18T13:36:33;3.10;99.10
8711;DHT22;4392;47.400;8.062;2022-12-18T13:41:47;3.10;99.00
8711;DHT22;4392;47.400;8.062;2022-12-18T13:47:03;3.10;98.90
8711;DHT22;4392;47.400;8.062;2022-12-18T13:49:38;3.10;99.00
8711;DHT22;4392;47.400;8.062;2022-12-18T13:52:18;3.20;98.70
8711;DHT22;4392;47.400;8.062;2022-12-18T13:54:49;3.10;98.70
8711;DHT22;4392;47.400;8.062;2022-12-18T13:57:37;3.10;98.70
8711;DHT22;4392;47.400;8.062;2022-12-18T14:00:28;3.20;99.00
8711;DHT22;4392;47.400;8.062;2022-12-18T14:03:23;3.10;99.00
8711;DHT22;4392;47.400;8.062;2022-12-18T14:06:04;3.20;98.90
8711;DHT22;4392;47.400;8.062;2022-12-18T14:08:57;3.20;98.70
8711;DHT22;4392;47.400;8.062;2022-12-18T14:11:23;3.20;98.50
8711;DHT22;4392;47.400;8.062;2022-12-18T14:13:49;3.10;98.60
8711;DHT22;4392;47.400;8.062;2022-12-18T14:16:16;3.20;98.50
8711;DHT22;4392;47.400;8.062;2022-12-18T14:18:55;3.20;98.30
8711;DHT22;4392;47.400;8.062;2022-12-18T14:21:29;3.20;98.40
8711;DHT22;4392;47.400;8.062;2022-12-18T14:24:11;3.20;98.60
8711;DHT22;4392;47.400;8.062;2022-12-18T14:26:37;3.20;98.80
8711;DHT22;4392;47.400;8.062;2022-12-18T14:29:27;3.20;98.70
8711;DHT22;4392;47.400;8.062;2022-12-18T14:32:14;3.10;98.60
8711;DHT22;4392;47.400;8.062;2022-12-18T14:34:43;3.00;99.60
8711;DHT22;4392;47.400;8.062;2022-12-18T14:37:14;2.90;99.90
8711;DHT22;4392;47.400;8.062;2022-12-18T14:39:40;2.70;99.90
8711;DHT22;4392;47.400;8.062;2022-12-18T14:42:09;3.00;99.90
8711;DHT22;4392;47.400;8.062;2022-12-18T14:44:36;3.10;99.90
8711;DHT22;4392;47.400;8.062;2022-12-18T14:47:02;3.00;99.90
8711;DHT22;4392;47.400;8.062;2022-12-18T14:49:34;3.10;99.90
8711;DHT22;4392;47.400;8.062;2022-12-18T14:52:06;3.00;99.90
8711;DHT22;4392;47.400;8.062;2022-12-18T14:54:40;3.00;99.90
8711;DHT22;4392;47.400;8.062;2022-12-18T14:59:42;3.00;99.90
8711;DHT22;4392;47.400;8.062;2022-12-18T15:02:25;3.00;99.90
8711;DHT22;4392;47.400;8.062;2022-12-18T15:05:03;3.00;99.90
8711;DHT22;4392;47.400;8.062;2022-12-18T15:07:52;3.00;99.90
8711;DHT22;4392;47.400;8.062;2022-12-18T15:10:21;3.00;99.90
8711;DHT22;4392;47.400;8.062;2022-12-18T15:20:54;3.00;99.90
8711;DHT22;4392;47.400;8.062;2022-12-18T15:23:35;3.00;99.90
8711;DHT22;4392;47.400;8.062;2022-12-18T15:26:07;3.00;99.90
8711;DHT22;4392;47.400;8.062;2022-12-18T15:33:45;3.10;99.90
8711;DHT22;4392;47.400;8.062;2022-12-18T15:36:28;3.10;99.90
8711;DHT22;4392;47.400;8.062;2022-12-18T15:39:02;3.20;99.90
8711;DHT22;4392;47.400;8.062;2022-12-18T15:41:31;3.10;99.90
8711;DHT22;4392;47.400;8.062;2022-12-18T15:43:57;3.00;99.90
8711;DHT22;4392;47.400;8.062;2022-12-18T15:46:24;3.00;99.90
8711;DHT22;4392;47.400;8.062;2022-12-18T15:48:52;3.00;99.90
8711;DHT22;4392;47.400;8.062;2022-12-18T15:51:34;3.00;99.90
8711;DHT22;4392;47.400;8.062;2022-12-18T15:54:06;3.00;99.90
8711;DHT22;4392;47.400;8.062;2022-12-18T15:56:34;3.00;99.90
8711;DHT22;4392;47.400;8.062;2022-12-18T15:59:20;3.00;99.90
8711;DHT22;4392;47.400;8.062;2022-12-18T16:01:48;3.00;99.90
8711;DHT22;4392;47.400;8.062;2022-12-18T16:04:17;2.90;99.90
8711;DHT22;4392;47.400;8.062;2022-12-18T16:06:43;2.90;99.90
8711;DHT22;4392;47.400;8.062;2022-12-18T16:09:09;2.70;99.90
8711;DHT22;4392;47.400;8.062;2022-12-18T16:11:36;2.70;99.90
8711;DHT22;4392;47.400;8.062;2022-12-18T16:14:27;2.60;99.90
8711;DHT22;4392;47.400;8.062;2022-12-18T16:17:02;2.40;99.90
8711;DHT22;4392;47.400;8.062;2022-12-18T16:19:28;2.60;99.90
8711;DHT22;4392;47.400;8.062;2022-12-18T16:21:56;2.80;99.90
8711;DHT22;4392;47.400;8.062;2022-12-18T16:24:28;2.80;99.90
8711;DHT22;4392;47.400;8.062;2022-12-18T16:26:57;2.80;99.90
8711;DHT22;4392;47.400;8.062;2022-12-18T16:29:26;2.90;99.90
8711;DHT22;4392;47.400;8.062;2022-12-18T16:31:53;2.90;99.90
8711;DHT22;4392;47.400;8.062;2022-12-18T16:34:23;2.80;99.90
8711;DHT22;4392;47.400;8.062;2022-12-18T16:36:52;2.90;99.90
8711;DHT22;4392;47.400;8.062;2022-12-18T16:39:19;2.90;99.90
8711;DHT22;4392;47.400;8.062;2022-12-18T16:41:46;2.80;99.90
8711;DHT22;4392;47.400;8.062;2022-12-18T16:44:13;2.80;99.90
8711;DHT22;4392;47.400;8.062;2022-12-18T16:46:39;2.80;99.90
8711;DHT22;4392;47.400;8.062;2022-12-18T16:49:05;3.00;99.90
8711;DHT22;4392;47.400;8.062;2022-12-18T16:51:31;2.90;99.90
8711;DHT22;4392;47.400;8.062;2022-12-18T16:53:56;3.00;99.90
8711;DHT22;4392;47.400;8.062;2022-12-18T16:56:22;3.10;99.90
8711;DHT22;4392;47.400;8.062;2022-12-18T16:58:53;3.00;99.90
8711;DHT22;4392;47.400;8.062;2022-12-18T17:01:20;2.90;99.90
8711;DHT22;4392;47.400;8.062;2022-12-18T17:04:12;2.80;99.90
8711;DHT22;4392;47.400;8.062;2022-12-18T17:06:40;2.80;99.90
8711;DHT22;4392;47.400;8.062;2022-12-18T17:09:10;2.80;99.90
8711;DHT22;4392;47.400;8.062;2022-12-18T17:11:36;2.80;99.90
8711;DHT22;4392;47.400;8.062;2022-12-18T17:14:20;2.80;99.90
8711;DHT22;4392;47.400;8.062;2022-12-18T17:16:47;2.90;99.90
8711;DHT22;4392;47.400;8.062;2022-12-18T17:19:13;2.90;99.90
8711;DHT22;4392;47.400;8.062;2022-12-18T17:21:47;2.80;99.90
8711;DHT22;4392;47.400;8.062;2022-12-18T17:24:13;2.90;99.90
8711;DHT22;4392;47.400;8.062;2022-12-18T17:26:38;2.90;99.90
8711;DHT22;4392;47.400;8.062;2022-12-18T17:29:04;2.80;99.90
8711;DHT22;4392;47.400;8.062;2022-12-18T17:31:31;2.90;99.90
8711;DHT22;4392;47.400;8.062;2022-12-18T17:33:57;2.90;99.90
8711;DHT22;4392;47.400;8.062;2022-12-18T17:36:26;3.00;99.90
8711;DHT22;4392;47.400;8.062;2022-12-18T17:39:00;3.00;99.90
8711;DHT22;4392;47.400;8.062;2022-12-18T17:41:27;2.90;99.90
8711;DHT22;4392;47.400;8.062;2022-12-18T17:43:58;2.90;99.90
8711;DHT22;4392;47.400;8.062;2022-12-18T17:46:26;2.90;99.90
8711;DHT22;4392;47.400;8.062;2022-12-18T17:48:54;2.80;99.90
8711;DHT22;4392;47.400;8.062;2022-12-18T17:51:20;2.80;99.90
8711;DHT22;4392;47.400;8.062;2022-12-18T17:53:46;2.80;99.90
8711;DHT22;4392;47.400;8.062;2022-12-18T17:56:14;2.80;99.90
8711;DHT22;4392;47.400;8.062;2022-12-18T17:58:40;2.80;99.90
8711;DHT22;4392;47.400;8.062;2022-12-18T18:01:07;2.80;99.90
8711;DHT22;4392;47.400;8.062;2022-12-18T18:03:34;2.80;99.90
8711;DHT22;4392;47.400;8.062;2022-12-18T18:06:04;2.80;99.90
8711;DHT22;4392;47.400;8.062;2022-12-18T18:08:30;2.80;99.90
8711;DHT22;4392;47.400;8.062;2022-12-18T18:11:02;2.80;99.90
8711;DHT22;4392;47.400;8.062;2022-12-18T18:13:47;2.80;99.90
8711;DHT22;4392;47.400;8.062;2022-12-18T18:16:45;2.80;99.90
8711;DHT22;4392;47.400;8.062;2022-12-18T18:19:14;2.80;99.90
8711;DHT22;4392;47.400;8.062;2022-12-18T18:21:41;2.80;99.90
8711;DHT22;4392;47.400;8.062;2022-12-18T18:24:09;2.80;99.90
8711;DHT22;4392;47.400;8.062;2022-12-18T18:26:36;2.80;99.90
8711;DHT22;4392;47.400;8.062;2022-12-18T18:29:04;2.80;99.90
8711;DHT22;4392;47.400;8.062;2022-12-18T18:31:31;2.70;99.90
8711;DHT22;4392;47.400;8.062;2022-12-18T18:33:59;2.70;99.90
8711;DHT22;4392;47.400;8.062;2022-12-18T18:36:26;2.70;99.90
8711;DHT22;4392;47.400;8.062;2022-12-18T18:38:53;2.70;99.90
8711;DHT22;4392;47.400;8.062;2022-12-18T18:41:20;2.70;99.90
8711;DHT22;4392;47.400;8.062;2022-12-18T18:43:53;2.70;99.90